LYPGLDDU

Guest
Details From LYPG - Podgorica
To LDDU - DUBROVNIK
Flight Number -
Tags generated
Created
Modified
Stats Distance 46 nm / 86 km
Max Altitude 100 ft / 30 m
Waypoints 3
Social Downloads 0
Likes 0
Share VATSIM

Download

Looking for another format? Having issues loading an existing format? Contact us
Advertisement - Login to hide

Notes

Basic altitude profile: - Ascent Rate: 2500ft/min - Ascent Speed: 250kts - Cruise Altitude: 35000ft - Cruise Speed: 420kts - Descent Rate: 1500ft/min - Descent Speed: 250kts Options: - Use NATs: yes - Use PACOTS: yes - Use low airways: yes - Use high airways: yes

Route

LYPG DBK LDDU

ID Type Via Altitude Latitude Longitude Leg Dist Tot Dist Heading (true) Name
O LYPG APT - 0 ft / 0 m 42.36795˚ 19.27572˚ - 0 nm - Podgorica
DBK VOR - 100 ft / 30 m 42.55384˚ 18.27743˚ 45 nm 45 nm 285° / 284° DUBROVNIK VOR-DME
O LDDU APT - 0 ft / 0 m 42.56284˚ 18.26450˚ 0 nm 46 nm 313° / 313° DUBROVNIK

Altitude Profile

Advertisement - Login to hide

LYPG

Details ICAO LYPG (TGD)
Name Podgorica
Region Serbia and Montenegro
Timezone Europe/Podgorica (UTC+1.0)
Stats Elevation 141 ft / 43 m (AMSL)
Location 42.367947° 19.275721°
Runways 2
Magnetic Variation 4.249° E

METAR

LYPG 111730Z 35005KT 9999 BKN040 OVC070 09/08 Q1018 NOSIG

Decode

TAF

TAF LYPG 111100Z 1112/1212 16005KT 8000 FEW010 BKN030 OVC070 TX12/1212Z TN08/1112Z TEMPO 1112/1117 3000 -RA BR BECMG 1117/1119 15015KT TEMPO 1117/1124 14015G25KT PROB30 TEMPO 1118/1212 RA

Decode

Departure Runways

ID Width Length Bearing (true) Bearing (mag) Surface Threshold Offset Overrun Length
08 50 ft / 15 m 7,130 ft / 2,173 m 85.78° 81.53° Asphalt 200 ft / 61 m 0 ft / 0 m
18 148 ft / 45 m 8,214 ft / 2,504 m 184.30° 180.05° Asphalt 250 ft / 76 m 0 ft / 0 m
26 50 ft / 15 m 7,130 ft / 2,173 m 265.79° 261.54° Asphalt 200 ft / 61 m 0 ft / 0 m
36 148 ft / 45 m 8,214 ft / 2,504 m 4.30° 0.05° Asphalt 250 ft / 76 m 0 ft / 0 m

LDDU

Details ICAO LDDU (DBV)
Name DUBROVNIK
Region Croatia
Timezone Europe/Zagreb (UTC+1.0)
Stats Elevation 527 ft / 161 m (AMSL)
Location 42.562840° 18.264499°
Runways 1
Magnetic Variation 4.099° E

METAR

LDDU 111730Z 14020KT 9999 BKN013 OVC021 14/11 Q1017 TEMPO 12025G35KT

Decode

TAF

TAF LDDU 111125Z 1112/1212 12020KT 9999 BKN035 TX15/1211Z TN13/1112Z TEMPO 1112/1122 12024G35KT TEMPO 1112/1212 RA BKN013 BKN035 PROB30 TEMPO 1118/1206 4000 SHRA SCT010 FEW020TCU BKN035

Decode

Destination Runways

ID Width Length Bearing (true) Bearing (mag) Surface Threshold Offset Overrun Length
12 148 ft / 45 m 10,803 ft / 3,293 m 118.30° 114.20° Asphalt 488 ft / 149 m 100 ft / 30 m
30 148 ft / 45 m 10,803 ft / 3,293 m 298.33° 294.23° Asphalt 0 ft / 0 m 100 ft / 30 m

Approach Navaids

Runway Type Ident Frequency Range Bearing (true) Bearing (mag) Slope Elevation
12 Localiser IDU 110.10 MHz 25 nm / 46 km 118.21° 114.11° - 469 ft / 143 m (AMSL)
12 Glidescope IDU 110.10 MHz 25 nm / 46 km 118.21° 114.11° 3.00° 502 ft / 153 m (AMSL)

Popular Alternatives